Time;durP1;ratioP1;P1;durP2;ratioP2;P2;SDS_P1;SDS_P2;PMS_P1;PMS_P2;Temp;Humidity;BMP_temperature;BMP_pressure;BME280_temperature;BME280_humidity;BME280_pressure;Samples;Min_cycle;Max_cycle;Signal;HPM_P1;HPM_P2
2021/03/01 00:04:35;;;;;;;12.10;6.17;;;;;;;;;;10474264;28;20723;-75
2021/03/01 00:09:36;;;;;;;12.60;6.43;;;;;;;;;;10469046;28;20212;-74
2021/03/01 00:14:39;;;;;;;13.10;7.30;;;;;;;;;;10453254;28;20291;-74
2021/03/01 00:19:40;;;;;;;12.87;6.23;;;;;;;;;;10473751;28;20212;-75
2021/03/01 00:24:42;;;;;;;14.77;7.30;;;;;;;;;;10446862;28;20213;-73
2021/03/01 00:29:45;;;;;;;12.47;6.87;;;;;;;;;;10472456;28;20647;-74
2021/03/01 00:34:46;;;;;;;14.47;6.97;;;;;;;;;;10473199;28;20208;-73
2021/03/01 00:39:48;;;;;;;13.37;7.27;;;;;;;;;;10489520;28;20209;-74
2021/03/01 00:44:50;;;;;;;12.87;6.57;;;;;;;;;;10486959;28;20337;-73
2021/03/01 00:49:52;;;;;;;13.07;7.20;;;;;;;;;;10473968;28;20227;-74
2021/03/01 00:54:53;;;;;;;14.33;7.27;;;;;;;;;;10516972;28;20202;-76
2021/03/01 00:59:56;;;;;;;15.03;7.33;;;;;;;;;;10489645;28;20204;-73
2021/03/01 01:04:57;;;;;;;15.87;7.17;;;;;;;;;;10471357;28;20192;-74
2021/03/01 01:09:59;;;;;;;14.83;7.73;;;;;;;;;;10483906;28;20727;-76
2021/03/01 01:15:04;;;;;;;14.23;7.13;;;;;;;;;;10470744;28;20337;-76
2021/03/01 01:20:07;;;;;;;14.27;6.70;;;;;;;;;;10503171;28;20208;-77
2021/03/01 01:25:09;;;;;;;14.57;7.70;;;;;;;;;;10508490;28;20241;-75
2021/03/01 01:30:13;;;;;;;15.63;7.57;;;;;;;;;;10476702;28;20252;-74
2021/03/01 01:35:16;;;;;;;16.37;8.10;;;;;;;;;;10481981;28;20628;-73
2021/03/01 01:40:18;;;;;;;14.23;7.33;;;;;;;;;;10484149;28;20219;-76
2021/03/01 01:45:23;;;;;;;16.10;8.03;;;;;;;;;;10500876;28;20291;-75
2021/03/01 01:50:25;;;;;;;14.60;7.93;;;;;;;;;;10481970;28;20303;-76
2021/03/01 01:55:28;;;;;;;13.03;7.33;;;;;;;;;;10478730;28;20215;-75
2021/03/01 02:00:45;;;;;;;15.53;7.73;;;;;;;;;;10471797;28;20801;-76
2021/03/01 02:05:48;;;;;;;13.90;7.00;;;;;;;;;;10484599;28;20272;-74
2021/03/01 02:10:51;;;;;;;14.83;7.20;;;;;;;;;;10490216;28;20221;-75
2021/03/01 02:15:55;;;;;;;13.83;7.07;;;;;;;;;;10503056;28;20289;-77
2021/03/01 02:21:07;;;;;;;15.83;7.80;;;;;;;;;;10456046;28;20217;-77
2021/03/01 02:26:11;;;;;;;14.13;7.07;;;;;;;;;;10482635;28;20231;-71
2021/03/01 02:31:14;;;;;;;17.33;8.17;;;;;;;;;;10494232;28;20205;-74
2021/03/01 02:36:18;;;;;;;14.87;7.93;;;;;;;;;;10490916;28;20664;-74
2021/03/01 02:41:21;;;;;;;15.23;8.13;;;;;;;;;;10479316;28;20227;-75
2021/03/01 02:46:23;;;;;;;13.30;7.20;;;;;;;;;;10470806;28;20577;-74
2021/03/01 02:51:25;;;;;;;15.93;7.87;;;;;;;;;;10488429;28;20224;-73
2021/03/01 02:56:28;;;;;;;15.87;8.23;;;;;;;;;;10478791;28;20313;-74
2021/03/01 03:01:30;;;;;;;14.57;7.77;;;;;;;;;;10497552;28;20279;-74
2021/03/01 03:06:35;;;;;;;15.73;7.53;;;;;;;;;;10490233;28;20258;-74
2021/03/01 03:11:38;;;;;;;14.87;8.20;;;;;;;;;;10460127;28;20723;-78
2021/03/01 03:16:40;;;;;;;14.47;7.17;;;;;;;;;;10482175;28;20216;-79
2021/03/01 03:21:42;;;;;;;14.47;7.50;;;;;;;;;;10520077;28;20209;-75
2021/03/01 03:26:45;;;;;;;15.03;7.73;;;;;;;;;;10489172;28;20236;-76
2021/03/01 03:31:46;;;;;;;15.57;7.40;;;;;;;;;;10489217;28;20223;-74
2021/03/01 03:36:53;;;;;;;14.30;7.77;;;;;;;;;;10446447;28;20289;-74
2021/03/01 03:41:56;;;;;;;15.90;7.47;;;;;;;;;;10450507;28;20219;-76
2021/03/01 03:46:58;;;;;;;15.17;7.30;;;;;;;;;;10497128;28;20703;-75
2021/03/01 03:52:00;;;;;;;14.67;7.43;;;;;;;;;;10474378;28;20266;-75
2021/03/01 03:57:08;;;;;;;15.33;8.23;;;;;;;;;;10506712;28;20203;-75
2021/03/01 04:02:10;;;;;;;12.70;6.93;;;;;;;;;;10477211;28;20634;-77
2021/03/01 04:07:12;;;;;;;16.87;7.90;;;;;;;;;;10454532;28;20228;-74
2021/03/01 04:12:15;;;;;;;12.60;7.13;;;;;;;;;;10489122;28;20291;-76
2021/03/01 04:17:17;;;;;;;15.87;7.30;;;;;;;;;;10491353;28;20239;-76
2021/03/01 04:22:20;;;;;;;15.53;8.23;;;;;;;;;;10507107;28;20206;-73
2021/03/01 04:27:22;;;;;;;15.60;7.60;;;;;;;;;;10476665;28;20216;-73
2021/03/01 04:32:25;;;;;;;16.40;7.73;;;;;;;;;;10480871;28;20264;-75
2021/03/01 04:37:27;;;;;;;16.40;7.87;;;;;;;;;;10492269;28;20216;-74
2021/03/01 04:42:30;;;;;;;17.50;8.07;;;;;;;;;;10485042;28;20203;-73
2021/03/01 04:47:33;;;;;;;16.10;7.80;;;;;;;;;;10491925;28;20532;-75
2021/03/01 04:52:35;;;;;;;15.17;7.23;;;;;;;;;;10501831;28;20565;-75
2021/03/01 04:57:39;;;;;;;16.73;7.80;;;;;;;;;;10499723;28;20253;-72
2021/03/01 05:02:41;;;;;;;15.87;7.53;;;;;;;;;;10501788;28;20189;-75
2021/03/01 05:07:43;;;;;;;14.20;7.73;;;;;;;;;;10481415;28;20209;-76
2021/03/01 05:12:46;;;;;;;15.33;7.30;;;;;;;;;;10478807;28;20195;-77
2021/03/01 05:17:47;;;;;;;14.50;7.03;;;;;;;;;;10508178;28;20207;-78
2021/03/01 05:22:49;;;;;;;14.33;7.63;;;;;;;;;;10498274;28;20208;-75
2021/03/01 05:27:53;;;;;;;15.40;7.73;;;;;;;;;;10484981;28;20291;-75
2021/03/01 05:32:55;;;;;;;18.57;7.93;;;;;;;;;;10473357;28;20219;-75
2021/03/01 05:37:56;;;;;;;16.20;8.03;;;;;;;;;;10470127;28;20216;-75
2021/03/01 05:43:00;;;;;;;15.43;7.63;;;;;;;;;;10493423;28;20705;-76
2021/03/01 05:48:07;;;;;;;15.23;7.60;;;;;;;;;;10513550;28;20339;-77
2021/03/01 05:53:09;;;;;;;16.20;8.17;;;;;;;;;;10518513;28;20198;-76
2021/03/01 05:58:13;;;;;;;15.50;8.23;;;;;;;;;;10461359;28;20205;-75
2021/03/01 06:03:14;;;;;;;16.43;8.60;;;;;;;;;;10487420;28;20227;-75
2021/03/01 06:08:17;;;;;;;16.27;8.70;;;;;;;;;;10485540;28;20307;-75
2021/03/01 06:13:19;;;;;;;16.13;7.93;;;;;;;;;;10472420;28;20288;-74
2021/03/01 06:18:21;;;;;;;15.30;7.77;;;;;;;;;;10501470;28;20672;-74
2021/03/01 06:23:29;;;;;;;15.47;7.47;;;;;;;;;;10481439;28;20177;-75
2021/03/01 06:28:31;;;;;;;14.83;7.20;;;;;;;;;;10459844;28;20229;-77
2021/03/01 06:33:33;;;;;;;14.23;7.17;;;;;;;;;;10491609;28;20276;-73
2021/03/01 06:38:35;;;;;;;12.93;6.93;;;;;;;;;;10460955;28;20232;-73
2021/03/01 06:43:39;;;;;;;11.67;6.87;;;;;;;;;;10481090;28;20224;-75
2021/03/01 06:48:41;;;;;;;14.43;6.97;;;;;;;;;;10489126;28;20267;-73
2021/03/01 06:53:43;;;;;;;12.63;6.50;;;;;;;;;;10496097;28;20498;-76
2021/03/01 06:58:46;;;;;;;14.60;7.43;;;;;;;;;;10482159;28;20311;-76
2021/03/01 07:03:49;;;;;;;13.73;7.30;;;;;;;;;;10501130;28;20200;-75
2021/03/01 07:08:52;;;;;;;11.47;6.90;;;;;;;;;;10460768;28;20295;-76
2021/03/01 07:13:57;;;;;;;11.57;6.77;;;;;;;;;;10464709;28;20614;-77
2021/03/01 07:18:59;;;;;;;14.17;7.60;;;;;;;;;;10484448;28;20220;-77
2021/03/01 07:24:03;;;;;;;14.10;7.23;;;;;;;;;;10507889;28;20248;-79
2021/03/01 07:29:09;;;;;;;14.77;7.37;;;;;;;;;;10503532;28;20225;-78
2021/03/01 07:34:10;;;;;;;12.10;7.40;;;;;;;;;;10522227;28;20193;-74
2021/03/01 07:39:12;;;;;;;13.17;7.23;;;;;;;;;;10477073;28;20584;-78
2021/03/01 07:44:15;;;;;;;10.70;6.70;;;;;;;;;;10465032;28;20209;-75
2021/03/01 07:49:35;;;;;;;11.40;7.23;;;;;;;;;;10496093;28;20228;-75
2021/03/01 07:54:50;;;;;;;10.50;7.10;;;;;;;;;;10470438;28;20291;-74
2021/03/01 07:59:52;;;;;;;14.47;7.23;;;;;;;;;;10456630;28;20665;-72
2021/03/01 08:04:54;;;;;;;10.33;7.00;;;;;;;;;;10462163;28;20208;-74
2021/03/01 08:09:56;;;;;;;13.17;8.30;;;;;;;;;;10479320;28;20349;-76
2021/03/01 08:14:59;;;;;;;13.20;7.70;;;;;;;;;;10488164;28;20188;-73
2021/03/01 08:20:19;;;;;;;9.82;6.70;;;;;;;;;;10476947;28;20218;-78
2021/03/01 08:25:41;;;;;;;10.25;7.30;;;;;;;;;;10466197;28;20262;-75
2021/03/01 08:30:43;;;;;;;11.80;7.50;;;;;;;;;;10496569;28;20208;-74
2021/03/01 08:35:48;;;;;;;11.30;6.70;;;;;;;;;;10467053;28;20194;-74
2021/03/01 08:40:50;;;;;;;10.73;6.65;;;;;;;;;;10475721;28;20291;-75
2021/03/01 08:45:54;;;;;;;9.43;7.15;;;;;;;;;;10456297;28;20188;-75
2021/03/01 08:50:56;;;;;;;10.27;7.38;;;;;;;;;;10465895;28;20210;-77
2021/03/01 08:55:59;;;;;;;12.48;6.95;;;;;;;;;;10484923;28;20676;-72
2021/03/01 09:01:03;;;;;;;12.25;7.60;;;;;;;;;;10480994;28;20664;-76
2021/03/01 09:06:06;;;;;;;11.98;7.55;;;;;;;;;;10499602;28;20250;-74
2021/03/01 09:11:13;;;;;;;11.65;8.00;;;;;;;;;;10490511;28;20715;-74
2021/03/01 09:16:16;;;;;;;13.27;7.72;;;;;;;;;;10481177;28;20288;-74
2021/03/01 09:21:19;;;;;;;9.45;7.20;;;;;;;;;;10491671;28;20222;-75
2021/03/01 09:26:24;;;;;;;12.38;7.90;;;;;;;;;;10484009;28;20213;-77
2021/03/01 09:31:27;;;;;;;14.13;6.93;;;;;;;;;;10464496;28;20669;-74
2021/03/01 09:36:30;;;;;;;9.40;6.53;;;;;;;;;;10473312;28;20823;-71
2021/03/01 09:41:35;;;;;;;9.38;6.82;;;;;;;;;;10458375;28;20262;-70
2021/03/01 09:46:38;;;;;;;10.65;6.95;;;;;;;;;;10471472;28;20292;-73
2021/03/01 09:51:41;;;;;;;11.15;7.05;;;;;;;;;;10471264;28;20647;-74
2021/03/01 09:56:44;;;;;;;10.38;7.25;;;;;;;;;;10455470;28;20312;-78
2021/03/01 10:01:46;;;;;;;9.07;7.00;;;;;;;;;;10455480;28;20276;-76
2021/03/01 10:06:48;;;;;;;9.45;7.28;;;;;;;;;;10490533;28;20212;-75
2021/03/01 10:11:59;;;;;;;8.90;6.63;;;;;;;;;;10475923;28;20283;-75
2021/03/01 10:17:14;;;;;;;9.48;6.35;;;;;;;;;;10460503;28;20272;-75
2021/03/01 10:22:16;;;;;;;9.48;5.70;;;;;;;;;;10501393;28;20645;-74
2021/03/01 10:27:18;;;;;;;9.43;5.78;;;;;;;;;;10473380;28;20228;-73
2021/03/01 10:32:21;;;;;;;7.95;5.50;;;;;;;;;;10493070;28;20614;-75
2021/03/01 10:37:25;;;;;;;8.25;6.07;;;;;;;;;;10479561;28;20591;-75
2021/03/01 10:42:27;;;;;;;8.23;6.10;;;;;;;;;;10510629;28;20181;-76
2021/03/01 10:47:30;;;;;;;8.65;5.93;;;;;;;;;;10481274;28;20238;-75
2021/03/01 10:52:32;;;;;;;8.63;6.20;;;;;;;;;;10474109;28;20750;-74
2021/03/01 10:57:34;;;;;;;10.40;6.20;;;;;;;;;;10469784;28;20703;-75
2021/03/01 11:02:37;;;;;;;10.93;7.10;;;;;;;;;;10481230;28;20239;-74
2021/03/01 11:07:39;;;;;;;10.23;7.78;;;;;;;;;;10491355;28;20208;-75
2021/03/01 11:12:40;;;;;;;9.35;7.47;;;;;;;;;;10466813;28;20234;-74
2021/03/01 11:17:43;;;;;;;14.43;8.48;;;;;;;;;;10493348;28;20208;-74
2021/03/01 11:22:45;;;;;;;11.30;7.70;;;;;;;;;;10473296;28;20231;-76
2021/03/01 11:27:46;;;;;;;12.68;8.48;;;;;;;;;;10471062;28;20216;-75
2021/03/01 11:32:49;;;;;;;11.57;8.48;;;;;;;;;;10471213;28;20614;-75
2021/03/01 11:37:51;;;;;;;9.38;8.10;;;;;;;;;;10465349;28;20217;-73
2021/03/01 11:42:53;;;;;;;11.40;7.60;;;;;;;;;;10471855;28;20208;-75
2021/03/01 11:47:55;;;;;;;8.65;5.85;;;;;;;;;;10481525;28;20599;-75
2021/03/01 11:52:57;;;;;;;12.15;5.82;;;;;;;;;;10467362;28;20211;-74
2021/03/01 11:57:58;;;;;;;11.02;6.20;;;;;;;;;;10459553;28;20212;-74
2021/03/01 12:03:04;;;;;;;9.63;5.47;;;;;;;;;;10484503;28;20187;-75
2021/03/01 12:08:07;;;;;;;9.43;5.70;;;;;;;;;;10470789;28;20505;-72
2021/03/01 12:13:08;;;;;;;8.02;5.28;;;;;;;;;;10463145;28;20825;-74
2021/03/01 12:18:11;;;;;;;9.93;5.57;;;;;;;;;;10472863;28;20507;-72
2021/03/01 12:23:13;;;;;;;8.57;5.40;;;;;;;;;;10480074;28;20185;-77
2021/03/01 12:28:14;;;;;;;9.27;5.90;;;;;;;;;;10481272;28;20237;-73
2021/03/01 12:33:17;;;;;;;8.25;5.63;;;;;;;;;;10465378;28;20637;-75
2021/03/01 12:38:18;;;;;;;8.98;5.68;;;;;;;;;;10478716;28;20212;-76
2021/03/01 12:43:20;;;;;;;8.00;5.10;;;;;;;;;;10481033;28;20202;-73
2021/03/01 12:48:22;;;;;;;9.27;5.05;;;;;;;;;;10480934;28;20227;-76
2021/03/01 12:53:24;;;;;;;7.07;4.18;;;;;;;;;;10490169;28;20264;-74
2021/03/01 12:58:26;;;;;;;8.57;4.95;;;;;;;;;;10497812;28;20223;-76
2021/03/01 13:03:28;;;;;;;8.10;4.65;;;;;;;;;;10518466;28;20185;-74
2021/03/01 13:08:30;;;;;;;9.10;5.80;;;;;;;;;;10486565;28;20280;-75
2021/03/01 13:13:32;;;;;;;9.05;5.68;;;;;;;;;;10487266;28;20208;-73
2021/03/01 13:18:34;;;;;;;9.98;6.15;;;;;;;;;;10493032;28;20629;-75
2021/03/01 13:23:37;;;;;;;11.70;6.95;;;;;;;;;;10495550;28;20566;-76
2021/03/01 13:28:39;;;;;;;10.90;6.38;;;;;;;;;;10493219;28;20231;-74
2021/03/01 13:33:43;;;;;;;12.15;6.70;;;;;;;;;;10470714;28;20276;-74
2021/03/01 13:38:44;;;;;;;9.30;6.15;;;;;;;;;;10499300;28;20290;-75
2021/03/01 13:43:46;;;;;;;9.13;5.93;;;;;;;;;;10470102;28;20189;-74
2021/03/01 13:49:03;;;;;;;11.85;5.93;;;;;;;;;;10485232;28;20591;-76
2021/03/01 13:54:05;;;;;;;8.68;5.57;;;;;;;;;;10488031;28;20200;-73
2021/03/01 13:59:06;;;;;;;8.57;5.15;;;;;;;;;;10479231;28;20260;-77
2021/03/01 14:04:09;;;;;;;9.30;5.22;;;;;;;;;;10490061;28;20290;-74
2021/03/01 14:09:11;;;;;;;8.90;5.00;;;;;;;;;;10475198;28;20257;-74
2021/03/01 14:14:12;;;;;;;9.80;4.97;;;;;;;;;;10497617;28;20238;-72
2021/03/01 14:19:15;;;;;;;9.32;4.65;;;;;;;;;;10459104;28;20746;-73
2021/03/01 14:24:16;;;;;;;9.55;4.55;;;;;;;;;;10489884;28;20291;-73
2021/03/01 14:29:20;;;;;;;7.82;4.13;;;;;;;;;;10479863;28;20236;-74
2021/03/01 14:34:23;;;;;;;7.43;3.93;;;;;;;;;;10479389;28;20715;-77
2021/03/01 14:39:25;;;;;;;8.03;3.87;;;;;;;;;;10474120;28;20205;-74
2021/03/01 14:44:28;;;;;;;9.83;4.07;;;;;;;;;;10486850;28;20447;-74
2021/03/01 14:49:31;;;;;;;6.73;3.20;;;;;;;;;;10490368;28;20265;-75
2021/03/01 14:54:34;;;;;;;6.87;3.43;;;;;;;;;;10499808;28;20188;-75
2021/03/01 14:59:36;;;;;;;6.57;3.17;;;;;;;;;;10476635;28;20712;-75
2021/03/01 15:04:39;;;;;;;6.97;3.50;;;;;;;;;;10478073;28;20183;-73
2021/03/01 15:09:42;;;;;;;6.73;3.40;;;;;;;;;;10464221;28;20611;-77
2021/03/01 15:14:43;;;;;;;7.20;3.70;;;;;;;;;;10485244;28;20247;-75
2021/03/01 15:19:46;;;;;;;6.73;3.27;;;;;;;;;;10458247;28;20216;-77
2021/03/01 15:24:48;;;;;;;6.30;2.97;;;;;;;;;;10443430;28;20755;-79
2021/03/01 15:29:49;;;;;;;7.30;3.37;;;;;;;;;;10466195;28;20677;-75
2021/03/01 15:34:52;;;;;;;8.23;4.13;;;;;;;;;;10490112;28;20192;-75
2021/03/01 15:39:53;;;;;;;10.60;4.20;;;;;;;;;;10505435;28;20294;-81
2021/03/01 15:44:56;;;;;;;8.50;4.40;;;;;;;;;;10497706;28;20193;-75
2021/03/01 15:49:58;;;;;;;9.40;4.40;;;;;;;;;;10497586;28;20215;-74
2021/03/01 15:55:03;;;;;;;9.00;4.37;;;;;;;;;;10495395;28;20248;-76
2021/03/01 16:00:06;;;;;;;8.10;4.13;;;;;;;;;;10484320;28;20204;-75
2021/03/01 16:05:09;;;;;;;9.57;3.80;;;;;;;;;;10482053;28;20716;-73
2021/03/01 16:10:11;;;;;;;9.53;4.50;;;;;;;;;;10503667;28;20560;-75
2021/03/01 16:15:13;;;;;;;11.30;3.73;;;;;;;;;;10488058;28;20203;-76
2021/03/01 16:20:16;;;;;;;8.80;3.83;;;;;;;;;;10485177;28;20216;-73
2021/03/01 16:25:18;;;;;;;7.50;3.40;;;;;;;;;;10489865;28;20233;-76
2021/03/01 16:30:19;;;;;;;9.17;3.43;;;;;;;;;;10469883;28;20247;-74
2021/03/01 16:35:22;;;;;;;8.20;3.40;;;;;;;;;;10501998;28;20257;-74
2021/03/01 16:40:24;;;;;;;8.80;3.83;;;;;;;;;;10477368;28;20226;-75
2021/03/01 16:45:25;;;;;;;8.57;3.47;;;;;;;;;;10516428;28;20235;-76
2021/03/01 16:50:28;;;;;;;8.13;3.37;;;;;;;;;;10469069;28;20218;-79
2021/03/01 16:55:30;;;;;;;7.40;3.30;;;;;;;;;;10485078;28;20545;-70
2021/03/01 17:00:32;;;;;;;6.97;3.10;;;;;;;;;;10458356;28;20624;-73
2021/03/01 17:05:36;;;;;;;7.53;3.30;;;;;;;;;;10461471;28;20189;-74
2021/03/01 17:10:39;;;;;;;8.87;4.17;;;;;;;;;;10458765;28;20229;-76
2021/03/01 17:15:41;;;;;;;8.03;3.57;;;;;;;;;;10451152;28;20251;-72
2021/03/01 17:20:51;;;;;;;8.17;3.50;;;;;;;;;;10476503;28;20306;-73
2021/03/01 17:25:52;;;;;;;7.57;3.43;;;;;;;;;;10465045;28;20197;-69
2021/03/01 17:30:54;;;;;;;8.40;3.30;;;;;;;;;;10458234;28;20676;-73
2021/03/01 17:35:58;;;;;;;8.23;3.23;;;;;;;;;;10469101;28;20284;-71
2021/03/01 17:40:59;;;;;;;9.17;3.87;;;;;;;;;;10454856;28;20240;-69
2021/03/01 17:46:04;;;;;;;19.47;14.63;;;;;;;;;;10479990;28;20186;-73
2021/03/01 17:51:11;;;;;;;8.20;3.70;;;;;;;;;;10468581;28;20247;-70
2021/03/01 17:56:17;;;;;;;9.67;3.37;;;;;;;;;;10485410;28;20232;-70
2021/03/01 18:01:20;;;;;;;9.30;3.40;;;;;;;;;;10496848;28;20188;-72
2021/03/01 18:06:23;;;;;;;10.80;3.73;;;;;;;;;;10472053;28;20189;-74
2021/03/01 18:11:25;;;;;;;7.57;3.17;;;;;;;;;;10480656;28;20215;-72
2021/03/01 18:16:31;;;;;;;9.10;3.17;;;;;;;;;;10510946;28;20204;-72
2021/03/01 18:21:35;;;;;;;7.43;3.50;;;;;;;;;;10474514;28;20347;-70
2021/03/01 18:26:37;;;;;;;7.73;3.43;;;;;;;;;;10469472;28;20240;-75
2021/03/01 18:31:41;;;;;;;7.07;3.10;;;;;;;;;;10502492;28;20327;-72
2021/03/01 18:36:48;;;;;;;12.67;5.87;;;;;;;;;;10488893;28;20220;-75
2021/03/01 18:41:51;;;;;;;8.43;3.60;;;;;;;;;;10505930;28;20192;-71
2021/03/01 18:46:54;;;;;;;10.07;3.40;;;;;;;;;;10488930;28;20300;-70
2021/03/01 18:51:59;;;;;;;10.60;4.10;;;;;;;;;;10472123;28;20216;-73
2021/03/01 18:57:03;;;;;;;7.97;3.63;;;;;;;;;;10490372;28;20208;-75
2021/03/01 19:02:05;;;;;;;11.57;4.13;;;;;;;;;;10476748;28;20242;-75
2021/03/01 19:07:08;;;;;;;7.60;3.60;;;;;;;;;;10474248;28;20560;-72
2021/03/01 19:12:13;;;;;;;10.07;3.70;;;;;;;;;;10501172;28;20215;-73
2021/03/01 19:17:14;;;;;;;10.37;3.93;;;;;;;;;;10515804;28;20277;-74
2021/03/01 19:22:19;;;;;;;8.63;3.90;;;;;;;;;;10483937;28;20188;-73
2021/03/01 19:27:21;;;;;;;8.33;3.73;;;;;;;;;;10484513;28;20713;-72
2021/03/01 19:32:22;;;;;;;11.10;4.37;;;;;;;;;;10493228;28;20212;-72
2021/03/01 19:37:25;;;;;;;10.00;4.07;;;;;;;;;;10473278;28;20220;-72
2021/03/01 19:42:27;;;;;;;8.60;4.60;;;;;;;;;;10474020;28;20192;-75
2021/03/01 19:47:34;;;;;;;7.30;3.50;;;;;;;;;;10491928;28;20208;-72
2021/03/01 19:52:38;;;;;;;10.37;4.00;;;;;;;;;;10497972;28;20204;-73
2021/03/01 19:57:39;;;;;;;8.57;3.90;;;;;;;;;;10484488;28;20299;-75
2021/03/01 20:02:42;;;;;;;11.00;4.20;;;;;;;;;;10478887;28;20192;-72
2021/03/01 20:07:47;;;;;;;9.90;4.20;;;;;;;;;;10500116;28;20213;-76
2021/03/01 20:12:49;;;;;;;9.37;4.40;;;;;;;;;;10491406;28;20258;-71
2021/03/01 20:17:51;;;;;;;11.67;6.20;;;;;;;;;;10480777;28;20209;-77
2021/03/01 20:23:00;;;;;;;9.70;3.90;;;;;;;;;;10479306;28;20189;-72
2021/03/01 20:28:05;;;;;;;10.07;3.87;;;;;;;;;;10492777;28;20235;-75
2021/03/01 20:33:07;;;;;;;14.77;4.77;;;;;;;;;;10481947;28;20208;-74
2021/03/01 20:38:14;;;;;;;8.67;4.47;;;;;;;;;;10463428;28;20318;-74
2021/03/01 20:43:22;;;;;;;8.37;4.23;;;;;;;;;;10484660;28;20220;-76
2021/03/01 20:48:25;;;;;;;10.37;4.37;;;;;;;;;;10498242;28;20208;-79
2021/03/01 20:53:28;;;;;;;10.70;4.70;;;;;;;;;;10483604;28;20270;-74
2021/03/01 20:58:34;;;;;;;10.77;4.40;;;;;;;;;;10499537;28;20250;-76
2021/03/01 21:03:37;;;;;;;8.97;4.13;;;;;;;;;;10469182;28;20193;-73
2021/03/01 21:08:41;;;;;;;9.23;4.27;;;;;;;;;;10507923;28;20211;-74
2021/03/01 21:13:43;;;;;;;11.73;4.70;;;;;;;;;;10486027;28;20236;-71
2021/03/01 21:18:45;;;;;;;10.57;4.80;;;;;;;;;;10515300;28;20276;-77
2021/03/01 21:23:50;;;;;;;13.50;5.40;;;;;;;;;;10486167;28;20261;-76
2021/03/01 21:28:52;;;;;;;10.27;5.07;;;;;;;;;;10486172;28;20216;-75
2021/03/01 21:34:00;;;;;;;11.33;5.07;;;;;;;;;;10489126;28;20208;-77
2021/03/01 21:39:06;;;;;;;11.27;4.57;;;;;;;;;;10497864;28;20293;-73
2021/03/01 21:44:08;;;;;;;9.40;4.10;;;;;;;;;;10466370;28;20228;-73
2021/03/01 21:49:09;;;;;;;9.20;4.93;;;;;;;;;;10483923;28;20224;-70
2021/03/01 21:54:14;;;;;;;10.30;4.33;;;;;;;;;;10490936;28;20582;-73
2021/03/01 21:59:15;;;;;;;11.83;4.70;;;;;;;;;;10482463;28;20762;-71
2021/03/01 22:04:22;;;;;;;11.80;4.97;;;;;;;;;;10459445;28;20283;-71
2021/03/01 22:09:24;;;;;;;11.23;4.43;;;;;;;;;;10474672;28;20224;-71
2021/03/01 22:14:26;;;;;;;10.47;4.33;;;;;;;;;;10459021;28;20219;-72
2021/03/01 22:19:28;;;;;;;12.00;5.00;;;;;;;;;;10483216;28;20306;-70
2021/03/01 22:24:31;;;;;;;10.23;4.80;;;;;;;;;;10484588;28;20204;-71
2021/03/01 22:29:35;;;;;;;10.93;4.73;;;;;;;;;;10476982;28;20294;-70
2021/03/01 22:34:39;;;;;;;11.17;4.77;;;;;;;;;;10481232;28;20207;-74
2021/03/01 22:39:43;;;;;;;11.30;4.90;;;;;;;;;;10481879;28;20747;-74
2021/03/01 22:44:46;;;;;;;11.93;4.60;;;;;;;;;;10484659;28;20216;-74
2021/03/01 22:49:48;;;;;;;10.27;4.40;;;;;;;;;;10453157;28;20291;-70
2021/03/01 22:54:52;;;;;;;10.47;4.37;;;;;;;;;;10490329;28;20268;-73
2021/03/01 22:59:53;;;;;;;11.20;5.37;;;;;;;;;;10462370;28;20208;-70
2021/03/01 23:04:55;;;;;;;11.63;5.30;;;;;;;;;;10457140;28;20196;-70
2021/03/01 23:09:58;;;;;;;12.33;6.50;;;;;;;;;;10469440;28;20285;-76
2021/03/01 23:15:00;;;;;;;16.67;7.67;;;;;;;;;;10493990;28;20565;-77
2021/03/01 23:20:04;;;;;;;15.77;7.17;;;;;;;;;;10459403;28;20245;-70
2021/03/01 23:25:07;;;;;;;15.30;7.90;;;;;;;;;;10488180;28;20209;-70
2021/03/01 23:30:10;;;;;;;16.13;7.07;;;;;;;;;;10487054;28;20299;-69
2021/03/01 23:35:12;;;;;;;16.80;7.50;;;;;;;;;;10485593;28;20672;-70
2021/03/01 23:40:15;;;;;;;12.97;5.10;;;;;;;;;;10470347;28;20217;-74
2021/03/01 23:45:18;;;;;;;15.83;7.03;;;;;;;;;;10506685;28;20261;-72
2021/03/01 23:50:20;;;;;;;22.90;9.90;;;;;;;;;;10501088;28;20245;-71
2021/03/01 23:55:22;;;;;;;19.73;8.20;;;;;;;;;;10500382;28;20196;-71
